createdAt,value
2018-09-24T00:00:27.516Z,13.70
2018-09-24T00:01:27.753Z,13.40
2018-09-24T00:02:27.552Z,13.50
2018-09-24T00:03:27.606Z,13.50
2018-09-24T00:04:27.704Z,14.30
2018-09-24T00:05:27.591Z,13.00
2018-09-24T00:06:27.836Z,14.90
2018-09-24T00:07:27.624Z,14.00
2018-09-24T00:08:27.769Z,13.30
2018-09-24T00:09:27.776Z,14.10
2018-09-24T00:10:27.793Z,15.80
2018-09-24T00:11:27.913Z,16.10
2018-09-24T00:12:27.706Z,15.90
2018-09-24T00:13:27.751Z,16.20
2018-09-24T00:14:27.741Z,16.80
2018-09-24T00:15:27.760Z,17.00
2018-09-24T00:16:27.857Z,17.40
2018-09-24T00:17:27.789Z,17.10
2018-09-24T00:18:27.797Z,17.30
2018-09-24T00:19:27.820Z,18.90
2018-09-24T00:20:27.823Z,22.10
2018-09-24T00:21:27.893Z,22.00
2018-09-24T00:22:27.868Z,23.80
2018-09-24T00:23:27.994Z,23.50
2018-09-24T00:24:27.912Z,22.30
2018-09-24T00:25:27.899Z,22.90
2018-09-24T00:26:28.190Z,25.10
2018-09-24T00:27:27.920Z,26.10
2018-09-24T00:28:27.946Z,24.30
2018-09-24T00:29:27.975Z,25.30
2018-09-24T00:30:28.099Z,24.40
2018-09-24T00:31:28.088Z,24.80
2018-09-24T00:32:28.130Z,24.40
2018-09-24T00:33:28.142Z,26.00
2018-09-24T00:34:28.032Z,24.30
2018-09-24T00:35:28.050Z,26.40
2018-09-24T00:36:28.219Z,27.40
2018-09-24T00:37:28.087Z,27.10
2018-09-24T00:38:28.220Z,25.80
2018-09-24T00:39:28.107Z,25.80
2018-09-24T00:40:28.131Z,26.60
2018-09-24T00:41:28.314Z,28.80
2018-09-24T00:42:28.160Z,27.00
2018-09-24T00:43:28.232Z,28.10
2018-09-24T00:44:28.182Z,28.90
2018-09-24T00:45:28.198Z,28.00
2018-09-24T00:46:28.271Z,28.70
2018-09-24T00:47:28.234Z,28.00
2018-09-24T00:48:28.372Z,28.10
2018-09-24T00:49:28.257Z,27.70
2018-09-24T00:50:28.403Z,28.60
2018-09-24T00:51:28.524Z,31.10
2018-09-24T00:52:28.317Z,31.60
2018-09-24T00:53:28.440Z,29.60
2018-09-24T00:54:28.330Z,30.20
2018-09-24T00:55:28.398Z,29.40
2018-09-24T00:56:28.458Z,29.00
2018-09-24T00:57:28.503Z,31.40
2018-09-24T00:58:28.399Z,29.70
2018-09-24T00:59:28.533Z,31.50
2018-09-24T01:00:28.433Z,31.70
2018-09-24T01:01:28.659Z,30.90
2018-09-24T01:02:28.457Z,30.40
2018-09-24T01:03:28.513Z,30.50
2018-09-24T01:04:28.539Z,30.90
2018-09-24T01:05:28.499Z,30.70
2018-09-24T01:06:28.613Z,31.60
2018-09-24T01:07:28.529Z,31.00
2018-09-24T01:08:28.547Z,31.20
2018-09-24T01:09:28.683Z,33.90
2018-09-24T01:10:28.692Z,32.00
2018-09-24T01:11:28.675Z,31.00
2018-09-24T01:12:28.600Z,30.80
2018-09-24T01:13:28.608Z,30.30
2018-09-24T01:14:28.628Z,30.70
2018-09-24T01:15:28.646Z,31.70
2018-09-24T01:16:28.888Z,32.00
2018-09-24T01:17:28.672Z,31.60
2018-09-24T01:18:28.688Z,33.20
2018-09-24T01:19:28.752Z,32.70
2018-09-24T01:20:28.728Z,32.40
2018-09-24T01:21:28.824Z,30.40
2018-09-24T01:22:28.738Z,29.60
2018-09-24T01:23:28.883Z,30.50
2018-09-24T01:24:28.905Z,31.30
2018-09-24T01:25:28.889Z,31.10
2018-09-24T01:26:28.797Z,30.90
2018-09-24T01:27:28.947Z,31.80
2018-09-24T01:28:28.834Z,32.10
2018-09-24T01:29:28.848Z,31.20
2018-09-24T01:30:29.086Z,31.60
2018-09-24T01:31:29.010Z,30.90
2018-09-24T01:32:28.890Z,31.40
2018-09-24T01:33:28.910Z,30.80
2018-09-24T01:34:28.918Z,31.20
2018-09-24T01:35:29.166Z,31.90
2018-09-24T01:36:28.951Z,31.80
2018-09-24T01:37:29.092Z,32.20
2018-09-24T01:38:29.102Z,31.80
2018-09-24T01:39:29.124Z,32.20
2018-09-24T01:40:29.167Z,33.00
2018-09-24T01:41:29.024Z,32.10
2018-09-24T01:42:29.088Z,33.60
2018-09-24T01:43:29.183Z,33.80
2018-09-24T01:44:29.063Z,34.10
2018-09-24T01:45:29.192Z,33.50
2018-09-24T01:46:29.134Z,34.40
2018-09-24T01:47:29.114Z,33.00
2018-09-24T01:48:29.249Z,33.10
2018-09-24T01:49:29.261Z,33.00
2018-09-24T01:50:29.321Z,31.90
2018-09-24T01:51:29.295Z,33.70
2018-09-24T01:52:29.312Z,32.90
2018-09-24T01:53:29.203Z,32.40
2018-09-24T01:54:29.337Z,33.60
2018-09-24T01:55:29.450Z,34.70
2018-09-24T01:56:29.236Z,34.90
2018-09-24T01:57:29.269Z,34.20
2018-09-24T01:58:29.395Z,33.10
2018-09-24T01:59:29.278Z,35.30
2018-09-24T02:00:29.449Z,36.40
2018-09-24T02:01:29.435Z,34.40
2018-09-24T02:02:29.342Z,36.90
2018-09-24T02:03:29.342Z,35.70
2018-09-24T02:04:29.354Z,36.00
2018-09-24T02:05:29.473Z,37.10
2018-09-24T02:06:29.377Z,37.80
2018-09-24T02:07:29.392Z,38.00
2018-09-24T02:08:29.425Z,37.80
2018-09-24T02:09:29.547Z,39.40
2018-09-24T02:10:29.539Z,38.30
2018-09-24T02:11:29.477Z,38.40
2018-09-24T02:12:29.495Z,37.90
2018-09-24T02:13:29.483Z,37.80
2018-09-24T02:14:29.617Z,38.30
2018-09-24T02:15:29.562Z,38.10
2018-09-24T02:16:29.540Z,39.90
2018-09-24T02:17:29.683Z,39.30
2018-09-24T02:18:29.553Z,40.10
2018-09-24T02:19:29.607Z,38.40
2018-09-24T02:20:29.706Z,39.00
2018-09-24T02:21:29.602Z,39.70
2018-09-24T02:22:29.717Z,42.20
2018-09-24T02:23:29.627Z,40.70
2018-09-24T02:24:29.636Z,40.90
2018-09-24T02:25:29.778Z,40.50
2018-09-24T02:26:29.793Z,41.10
2018-09-24T02:27:29.779Z,40.80
2018-09-24T02:28:29.701Z,40.40
2018-09-24T02:29:29.723Z,40.60
2018-09-24T02:30:29.720Z,39.60
2018-09-24T02:31:29.744Z,39.70
2018-09-24T02:32:29.803Z,40.70
2018-09-24T02:33:29.754Z,42.40
2018-09-24T02:34:29.903Z,43.70
2018-09-24T02:35:29.924Z,46.60
2018-09-24T02:36:29.821Z,45.90
2018-09-24T02:37:29.999Z,45.80
2018-09-24T02:38:29.853Z,45.50
2018-09-24T02:39:29.976Z,44.70
2018-09-24T02:40:29.987Z,44.90
2018-09-24T02:41:29.924Z,47.40
2018-09-24T02:42:29.957Z,45.30
2018-09-24T02:43:29.952Z,46.00
2018-09-24T02:44:30.074Z,45.30
2018-09-24T02:45:30.063Z,44.10
2018-09-24T02:46:29.950Z,44.60
2018-09-24T02:47:29.967Z,43.30
2018-09-24T02:48:30.100Z,45.40
2018-09-24T02:49:30.214Z,44.50
2018-09-24T02:50:30.132Z,43.70
2018-09-24T02:51:30.038Z,45.00
2018-09-24T02:52:30.163Z,43.00
2018-09-24T02:53:30.046Z,42.70
2018-09-24T02:54:30.121Z,42.30
2018-09-24T02:55:30.197Z,43.10
2018-09-24T02:56:30.090Z,42.20
2018-09-24T02:57:30.256Z,45.30
2018-09-24T02:58:30.113Z,46.30
2018-09-24T02:59:30.167Z,46.00
2018-09-24T03:00:30.153Z,45.20
2018-09-24T03:01:30.224Z,46.80
2018-09-24T03:02:30.228Z,48.00
2018-09-24T03:03:30.311Z,47.70
2018-09-24T03:04:30.324Z,45.00
2018-09-24T03:05:30.265Z,43.40
2018-09-24T03:06:30.235Z,45.70
2018-09-24T03:07:30.248Z,44.70
2018-09-24T03:08:30.382Z,45.40
2018-09-24T03:09:30.260Z,44.70
2018-09-24T03:10:30.559Z,47.90
2018-09-24T03:11:30.422Z,45.40
2018-09-24T03:12:30.443Z,46.20
2018-09-24T03:13:30.454Z,46.30
2018-09-24T03:14:30.354Z,47.80
2018-09-24T03:15:30.529Z,47.30
2018-09-24T03:16:30.375Z,47.40
2018-09-24T03:17:30.387Z,47.20
2018-09-24T03:18:30.398Z,46.70
2018-09-24T03:19:30.416Z,47.60
2018-09-24T03:20:30.473Z,46.50
2018-09-24T03:21:30.539Z,46.40
2018-09-24T03:22:30.498Z,45.80
2018-09-24T03:23:30.588Z,46.30
2018-09-24T03:24:30.475Z,47.50
2018-09-24T03:25:30.492Z,44.60
2018-09-24T03:26:30.563Z,45.70
2018-09-24T03:27:30.647Z,45.90
2018-09-24T03:28:30.531Z,47.20
2018-09-24T03:29:30.673Z,48.30
2018-09-24T03:30:30.786Z,48.10
2018-09-24T03:31:30.584Z,48.40
2018-09-24T03:32:30.601Z,50.70
2018-09-24T03:33:30.725Z,49.60
2018-09-24T03:34:30.615Z,48.60
2018-09-24T03:35:30.721Z,50.10
2018-09-24T03:36:30.644Z,48.00
2018-09-24T03:37:30.758Z,49.40
2018-09-24T03:38:30.798Z,49.60
2018-09-24T03:39:30.810Z,51.70
2018-09-24T03:40:30.704Z,52.70
2018-09-24T03:41:30.725Z,54.70
2018-09-24T03:42:31.009Z,53.80
2018-09-24T03:43:30.738Z,53.30
2018-09-24T03:44:30.762Z,54.30
2018-09-24T03:45:30.788Z,54.10
2018-09-24T03:46:30.909Z,54.30
2018-09-24T03:47:31.024Z,54.40
2018-09-24T03:48:30.800Z,54.00
2018-09-24T03:49:30.820Z,53.50
2018-09-24T03:50:30.835Z,54.30
2018-09-24T03:51:30.849Z,54.00
2018-09-24T03:52:31.016Z,54.20
2018-09-24T03:53:30.870Z,53.30
2018-09-24T03:54:31.014Z,54.60
2018-09-24T03:55:31.031Z,54.40
2018-09-24T03:56:30.925Z,52.10
2018-09-24T03:57:31.034Z,53.50
2018-09-24T03:58:31.076Z,56.40
2018-09-24T03:59:30.975Z,54.40
2018-09-24T04:00:31.095Z,53.80
2018-09-24T04:01:31.000Z,55.30
2018-09-24T04:02:31.110Z,56.60
2018-09-24T04:03:31.021Z,54.80
2018-09-24T04:04:31.159Z,56.40
2018-09-24T04:05:31.165Z,55.40
2018-09-24T04:06:31.057Z,58.60
2018-09-24T04:07:31.245Z,57.40
2018-09-24T04:08:31.094Z,57.00
2018-09-24T04:09:31.123Z,54.40
2018-09-24T04:10:31.236Z,56.30
2018-09-24T04:11:31.252Z,55.90
2018-09-24T04:12:31.225Z,57.20
2018-09-24T04:13:31.146Z,55.50
2018-09-24T04:14:31.287Z,52.30
2018-09-24T04:15:31.176Z,55.10
2018-09-24T04:16:31.227Z,50.60
2018-09-24T04:17:31.384Z,52.30
2018-09-24T04:18:31.347Z,51.70
2018-09-24T04:19:31.373Z,48.60
2018-09-24T04:20:31.374Z,49.10
2018-09-24T04:21:31.250Z,52.80
2018-09-24T04:22:31.430Z,55.50
2018-09-24T04:23:31.289Z,54.70
2018-09-24T04:24:31.425Z,52.10
2018-09-24T04:25:31.312Z,53.90
2018-09-24T04:26:31.455Z,55.60
2018-09-24T04:27:31.620Z,54.40
2018-09-24T04:28:31.476Z,53.90
2018-09-24T04:29:31.401Z,54.70
2018-09-24T04:30:31.379Z,52.80
2018-09-24T04:31:31.390Z,55.60
2018-09-24T04:32:31.584Z,58.10
2018-09-24T04:33:31.542Z,53.10
2018-09-24T04:34:31.440Z,55.10
2018-09-24T04:35:31.442Z,55.80
2018-09-24T04:36:31.585Z,57.10
2018-09-24T04:37:31.624Z,57.90
2018-09-24T04:38:31.487Z,60.70
2018-09-24T04:39:31.683Z,57.90
2018-09-24T04:40:31.555Z,59.50
2018-09-24T04:41:31.569Z,60.10
2018-09-24T04:42:31.687Z,60.20
2018-09-24T04:43:31.546Z,61.00
2018-09-24T04:44:31.569Z,59.80
2018-09-24T04:45:31.705Z,62.30
2018-09-24T04:46:31.609Z,60.30
2018-09-24T04:47:31.887Z,59.50
2018-09-24T04:48:31.618Z,61.30
2018-09-24T04:49:31.758Z,62.00
2018-09-24T04:50:31.774Z,59.00
2018-09-24T04:51:31.663Z,61.10
2018-09-24T04:52:31.782Z,61.00
2018-09-24T04:53:31.699Z,63.30
2018-09-24T04:54:31.723Z,61.70
2018-09-24T04:55:31.716Z,61.00
2018-09-24T04:56:31.730Z,61.60
2018-09-24T04:57:32.014Z,63.50
2018-09-24T04:58:31.909Z,64.40
2018-09-24T04:59:31.774Z,68.50
2018-09-24T05:00:31.913Z,70.00
2018-09-24T05:01:31.922Z,71.80
2018-09-24T05:02:31.988Z,72.90
2018-09-24T05:03:31.952Z,74.20
2018-09-24T05:04:31.959Z,78.60
2018-09-24T05:05:31.977Z,77.80
2018-09-24T05:06:31.864Z,77.50
2018-09-24T05:07:32.104Z,75.10
2018-09-24T05:08:31.924Z,73.20
2018-09-24T05:09:32.028Z,72.90
2018-09-24T05:10:31.959Z,72.70
2018-09-24T05:11:31.932Z,71.10
2018-09-24T05:12:32.103Z,69.40
2018-09-24T05:13:31.953Z,70.10
2018-09-24T05:14:31.973Z,70.40
2018-09-24T05:15:32.019Z,66.90
2018-09-24T05:16:32.168Z,66.60
2018-09-24T05:17:32.183Z,66.30
2018-09-24T05:18:32.031Z,66.50
2018-09-24T05:19:32.025Z,64.00
2018-09-24T05:20:32.046Z,64.00
2018-09-24T05:21:32.067Z,64.70
2018-09-24T05:22:32.124Z,64.80
2018-09-24T05:23:32.083Z,65.50
2018-09-24T05:24:32.257Z,64.40
2018-09-24T05:25:32.118Z,63.30
2018-09-24T05:26:32.124Z,63.10
2018-09-24T05:27:32.140Z,63.40
2018-09-24T05:28:32.276Z,62.10
2018-09-24T05:29:35.582Z,64.60
2018-09-24T05:30:32.185Z,64.40
2018-09-24T05:31:32.194Z,60.80
2018-09-24T05:32:32.379Z,62.50
2018-09-24T05:33:32.218Z,63.50
2018-09-24T05:34:32.444Z,61.70
2018-09-24T05:35:32.520Z,62.90
2018-09-24T05:36:32.262Z,61.60
2018-09-24T05:37:32.267Z,60.20
2018-09-24T05:38:32.413Z,60.90
2018-09-24T05:39:32.298Z,58.90
2018-09-24T05:40:32.456Z,61.50
2018-09-24T05:41:32.313Z,59.50
2018-09-24T05:42:32.349Z,61.00
2018-09-24T05:43:32.361Z,58.90
2018-09-24T05:44:32.368Z,59.00
2018-09-24T05:45:32.555Z,57.90
2018-09-24T05:46:32.397Z,58.50
2018-09-24T05:47:32.395Z,57.60
2018-09-24T05:48:32.544Z,59.70
2018-09-24T05:49:32.585Z,58.50
2018-09-24T05:50:32.442Z,59.80
2018-09-24T05:51:32.462Z,58.40
2018-09-24T05:52:32.472Z,58.50
2018-09-24T05:53:32.471Z,58.70
2018-09-24T05:54:32.493Z,58.70
2018-09-24T05:55:32.652Z,62.60
2018-09-24T05:56:32.530Z,59.70
2018-09-24T05:57:32.532Z,58.50
2018-09-24T05:58:32.579Z,56.80
2018-09-24T05:59:32.681Z,57.60
2018-09-24T06:00:32.723Z,59.20
2018-09-24T06:01:32.584Z,60.30
2018-09-24T06:02:32.722Z,59.90
2018-09-24T06:03:32.733Z,55.30
2018-09-24T06:04:32.799Z,60.30
2018-09-24T06:05:32.778Z,59.50
2018-09-24T06:06:32.656Z,58.70
2018-09-24T06:07:32.671Z,58.90
2018-09-24T06:08:32.805Z,58.80
2018-09-24T06:09:32.684Z,58.50
2018-09-24T06:10:32.853Z,58.20
2018-09-24T06:11:32.841Z,59.30
2018-09-24T06:12:32.739Z,57.30
2018-09-24T06:13:32.824Z,55.30
2018-09-24T06:14:32.881Z,60.30
2018-09-24T06:15:32.913Z,61.00
2018-09-24T06:16:32.902Z,58.90
2018-09-24T06:17:32.790Z,59.00
2018-09-24T06:18:32.928Z,58.30
2018-09-24T06:19:32.941Z,58.80
2018-09-24T06:20:33.016Z,58.80
2018-09-24T06:21:32.872Z,59.00
2018-09-24T06:22:32.988Z,61.50
2018-09-24T06:23:32.874Z,59.90
2018-09-24T06:24:33.008Z,57.50
2018-09-24T06:25:33.052Z,59.10
2018-09-24T06:26:32.926Z,58.90
2018-09-24T06:27:33.045Z,59.30
2018-09-24T06:28:32.974Z,59.00
2018-09-24T06:29:32.944Z,58.40
2018-09-24T06:30:33.237Z,58.50
2018-09-24T06:31:33.095Z,59.70
2018-09-24T06:32:33.111Z,58.30
2018-09-24T06:33:32.997Z,58.80
2018-09-24T06:34:33.133Z,61.80
2018-09-24T06:35:33.499Z,57.60
2018-09-24T06:36:33.078Z,59.90
2018-09-24T06:37:33.105Z,60.70
2018-09-24T06:38:33.083Z,57.70
2018-09-24T06:39:33.078Z,62.30
2018-09-24T06:40:33.176Z,59.40
2018-09-24T06:41:33.101Z,60.10
2018-09-24T06:42:33.117Z,58.30
2018-09-24T06:43:33.409Z,62.00
2018-09-24T06:44:33.265Z,58.70
2018-09-24T06:45:33.273Z,61.20
2018-09-24T06:46:33.286Z,61.30
2018-09-24T06:47:33.302Z,59.80
2018-09-24T06:48:33.361Z,60.00
2018-09-24T06:49:33.211Z,62.20
2018-09-24T06:50:33.364Z,63.60
2018-09-24T06:51:33.225Z,61.20
2018-09-24T06:52:33.369Z,60.20
2018-09-24T06:53:33.261Z,58.90
2018-09-24T06:54:33.272Z,62.40
2018-09-24T06:55:33.440Z,65.50
2018-09-24T06:56:33.419Z,75.40
2018-09-24T06:57:33.295Z,72.50
2018-09-24T06:58:33.324Z,72.50
2018-09-24T06:59:33.422Z,66.00
2018-09-24T07:00:33.364Z,68.20
2018-09-24T07:01:33.540Z,64.10
2018-09-24T07:02:33.496Z,62.40
2018-09-24T07:03:33.379Z,63.70
2018-09-24T07:04:33.405Z,63.00
2018-09-24T07:05:33.656Z,60.80
2018-09-24T07:06:33.574Z,60.40
2018-09-24T07:07:33.425Z,58.50
2018-09-24T07:08:33.568Z,57.90
2018-09-24T07:09:33.460Z,59.00
2018-09-24T07:10:33.467Z,59.20
2018-09-24T07:11:33.541Z,55.90
2018-09-24T07:12:33.496Z,53.70
2018-09-24T07:13:33.634Z,55.80
2018-09-24T07:14:33.646Z,58.20
2018-09-24T07:15:33.530Z,54.80
2018-09-24T07:16:33.704Z,50.90
2018-09-24T07:17:33.563Z,54.90
2018-09-24T07:18:33.699Z,49.60
2018-09-24T07:19:33.706Z,56.00
2018-09-24T07:20:33.726Z,59.20
2018-09-24T07:21:33.893Z,58.00
2018-09-24T07:22:33.630Z,58.00
2018-09-24T07:23:33.638Z,56.90
2018-09-24T07:24:33.777Z,53.00
2018-09-24T07:25:33.789Z,53.70
2018-09-24T07:26:33.839Z,58.60
2018-09-24T07:27:33.740Z,57.00
2018-09-24T07:28:33.733Z,58.40
2018-09-24T07:29:33.700Z,57.70
2018-09-24T07:30:33.728Z,56.50
2018-09-24T07:31:34.014Z,57.20
2018-09-24T07:32:33.745Z,55.70
2018-09-24T07:33:33.886Z,52.80
2018-09-24T07:34:33.770Z,52.90
2018-09-24T07:35:33.913Z,55.40
2018-09-24T07:36:34.073Z,56.70
2018-09-24T07:37:33.936Z,56.10
2018-09-24T07:38:33.951Z,54.60
2018-09-24T07:39:33.839Z,53.40
2018-09-24T07:40:33.860Z,50.10
2018-09-24T07:41:34.023Z,49.30
2018-09-24T07:42:33.876Z,51.20
2018-09-24T07:43:33.992Z,49.60
2018-09-24T07:44:34.027Z,48.20
2018-09-24T07:45:33.913Z,46.90
2018-09-24T07:46:33.990Z,49.40
2018-09-24T07:47:34.061Z,50.00
2018-09-24T07:48:34.228Z,49.40
2018-09-24T07:49:33.971Z,50.50
2018-09-24T07:50:33.967Z,53.30
2018-09-24T07:51:33.999Z,53.60
2018-09-24T07:52:34.127Z,52.70
2018-09-24T07:53:34.166Z,54.70
2018-09-24T07:54:34.060Z,56.50
2018-09-24T07:55:34.223Z,53.90
2018-09-24T07:56:34.049Z,54.10
2018-09-24T07:57:34.184Z,52.80
2018-09-24T07:58:34.121Z,54.50
2018-09-24T07:59:34.364Z,55.10
2018-09-24T08:00:34.218Z,53.40
2018-09-24T08:01:34.237Z,56.30
2018-09-24T08:02:34.247Z,50.20
2018-09-24T08:03:34.259Z,53.40
2018-09-24T08:04:34.570Z,56.60
2018-09-24T08:05:34.163Z,51.30
2018-09-24T08:06:34.211Z,49.50
2018-09-24T08:07:34.331Z,49.60
2018-09-24T08:08:34.325Z,48.80
2018-09-24T08:09:34.488Z,51.10
2018-09-24T08:10:34.235Z,46.90
2018-09-24T08:11:34.234Z,47.30
2018-09-24T08:12:34.240Z,45.70
2018-09-24T08:13:34.384Z,48.80
2018-09-24T08:14:34.446Z,45.80
2018-09-24T08:15:34.415Z,45.80
2018-09-24T08:16:34.427Z,48.90
2018-09-24T08:17:34.435Z,46.60
2018-09-24T08:18:34.596Z,48.70
2018-09-24T08:19:34.457Z,49.00
2018-09-24T08:20:34.467Z,49.10
2018-09-24T08:21:34.481Z,49.60
2018-09-24T08:22:34.497Z,49.70
2018-09-24T08:23:34.546Z,53.10
2018-09-24T08:24:34.389Z,49.60
2018-09-24T08:25:34.426Z,49.20
2018-09-24T08:26:34.540Z,48.00
2018-09-24T08:27:34.554Z,51.60
2018-09-24T08:28:34.600Z,48.30
2018-09-24T08:29:34.453Z,53.40
2018-09-24T08:30:34.481Z,54.40
2018-09-24T08:31:34.478Z,53.80
2018-09-24T08:32:34.478Z,56.30
2018-09-24T08:33:34.561Z,57.00
2018-09-24T08:34:34.522Z,56.60
2018-09-24T08:35:34.652Z,55.20
2018-09-24T08:36:34.710Z,53.70
2018-09-24T08:37:34.680Z,50.60
2018-09-24T08:38:34.564Z,51.90
2018-09-24T08:39:34.700Z,52.60
2018-09-24T08:40:34.718Z,52.50
2018-09-24T08:41:34.776Z,54.00
2018-09-24T08:42:34.782Z,50.00
2018-09-24T08:43:34.753Z,52.30
2018-09-24T08:44:34.762Z,54.10
2018-09-24T08:45:34.646Z,52.70
2018-09-24T08:46:34.661Z,52.70
2018-09-24T08:47:34.849Z,51.10
2018-09-24T08:48:34.676Z,51.70
2018-09-24T08:49:34.736Z,49.10
2018-09-24T08:50:34.837Z,45.30
2018-09-24T08:51:34.724Z,45.20
2018-09-24T08:52:34.890Z,49.00
2018-09-24T08:53:34.753Z,45.20
2018-09-24T08:54:34.767Z,46.60
2018-09-24T08:55:34.786Z,49.60
2018-09-24T08:56:34.990Z,47.40
2018-09-24T08:57:35.071Z,46.10
2018-09-24T08:58:34.816Z,43.90
2018-09-24T08:59:34.945Z,45.20
2018-09-24T09:00:34.847Z,43.40
2018-09-24T09:01:34.838Z,48.00
2018-09-24T09:02:35.022Z,48.50
2018-09-24T09:03:34.992Z,50.20
2018-09-24T09:04:34.879Z,50.80
2018-09-24T09:05:34.898Z,52.70
2018-09-24T09:06:34.905Z,59.10
2018-09-24T09:07:35.073Z,57.30
2018-09-24T09:08:34.935Z,56.70
2018-09-24T09:09:34.943Z,58.70
2018-09-24T09:10:35.082Z,60.00
2018-09-24T09:11:34.971Z,62.30
2018-09-24T09:12:35.125Z,61.80
2018-09-24T09:13:35.116Z,54.20
2018-09-24T09:14:35.011Z,57.60
2018-09-24T09:15:35.161Z,61.40
2018-09-24T09:16:35.034Z,57.80
2018-09-24T09:17:35.319Z,60.70
2018-09-24T09:18:35.059Z,60.30
2018-09-24T09:19:35.067Z,60.30
2018-09-24T09:20:35.202Z,62.60
2018-09-24T09:21:35.092Z,62.50
2018-09-24T09:22:35.161Z,60.20
2018-09-24T09:23:35.280Z,62.60
2018-09-24T09:24:35.141Z,60.80
2018-09-24T09:25:35.146Z,63.00
2018-09-24T09:26:35.288Z,53.70
2018-09-24T09:27:35.293Z,49.10
2018-09-24T09:28:35.346Z,42.20
2018-09-24T09:29:35.423Z,38.20
2018-09-24T09:30:35.343Z,36.80
2018-09-24T09:31:35.353Z,37.50
2018-09-24T09:32:35.362Z,35.50
2018-09-24T09:33:35.525Z,33.90
2018-09-24T09:34:35.393Z,32.90
2018-09-24T09:35:35.404Z,31.10
2018-09-24T09:36:35.330Z,30.30
2018-09-24T09:37:35.319Z,29.40
2018-09-24T09:38:35.514Z,27.00
2018-09-24T09:39:35.338Z,26.10
2018-09-24T09:40:35.482Z,23.50
2018-09-24T09:41:35.495Z,23.30
2018-09-24T09:42:35.509Z,24.10
2018-09-24T09:43:35.559Z,23.10
2018-09-24T09:44:35.410Z,22.10
2018-09-24T09:45:35.440Z,23.00
2018-09-24T09:46:35.582Z,21.60
2018-09-24T09:47:35.462Z,23.10
2018-09-24T09:48:35.655Z,22.10
2018-09-24T09:49:35.545Z,22.30
2018-09-24T09:50:35.513Z,21.50
2018-09-24T09:51:35.659Z,21.10
2018-09-24T09:52:35.545Z,20.50
2018-09-24T09:53:35.791Z,20.90
2018-09-24T09:54:35.591Z,21.30
2018-09-24T09:55:35.643Z,20.70
2018-09-24T09:56:35.619Z,20.90
2018-09-24T09:57:35.761Z,20.90
2018-09-24T09:58:35.929Z,22.00
2018-09-24T09:59:35.789Z,21.60
2018-09-24T10:00:35.685Z,20.50
2018-09-24T10:01:35.703Z,21.70
2018-09-24T10:02:35.843Z,19.20
2018-09-24T10:03:35.892Z,20.70
2018-09-24T10:04:35.812Z,20.60
2018-09-24T10:05:35.899Z,19.60
2018-09-24T10:06:35.813Z,20.40
2018-09-24T10:07:35.805Z,20.40
2018-09-24T10:08:35.984Z,21.30
2018-09-24T10:09:35.844Z,21.60
2018-09-24T10:10:35.999Z,22.10
2018-09-24T10:11:35.896Z,21.30
2018-09-24T10:12:35.908Z,22.40
2018-09-24T10:13:36.066Z,23.00
2018-09-24T10:14:36.068Z,22.60
2018-09-24T10:15:36.095Z,24.90
2018-09-24T10:16:36.108Z,23.20
2018-09-24T10:17:36.006Z,22.40
2018-09-24T10:18:36.174Z,23.80
2018-09-24T10:19:36.040Z,22.90
2018-09-24T10:20:36.102Z,22.90
2018-09-24T10:21:36.204Z,24.50
2018-09-24T10:22:36.173Z,24.90
2018-09-24T10:23:36.281Z,24.10
2018-09-24T10:24:36.139Z,23.40
2018-09-24T10:25:36.163Z,23.30
2018-09-24T10:26:36.176Z,21.70
2018-09-24T10:27:36.327Z,22.80
2018-09-24T10:28:36.369Z,24.40
2018-09-24T10:29:36.243Z,24.30
2018-09-24T10:30:36.394Z,21.80
2018-09-24T10:31:36.281Z,24.70
2018-09-24T10:32:36.459Z,24.40
2018-09-24T10:33:36.492Z,23.20
2018-09-24T10:34:36.472Z,23.90
2018-09-24T10:35:36.361Z,23.00
2018-09-24T10:36:36.521Z,23.10
2018-09-24T10:37:36.427Z,23.50
2018-09-24T10:38:36.628Z,22.60
2018-09-24T10:39:36.562Z,23.80
2018-09-24T10:40:36.596Z,23.20
2018-09-24T10:41:36.635Z,22.50
2018-09-24T10:42:36.529Z,21.70
2018-09-24T10:43:36.819Z,23.40
2018-09-24T10:44:36.570Z,27.00
2018-09-24T10:45:36.583Z,25.70
2018-09-24T10:46:36.734Z,25.70
2018-09-24T10:47:36.656Z,26.40
2018-09-24T10:48:36.706Z,26.00
2018-09-24T10:49:36.797Z,26.90
2018-09-24T10:50:36.691Z,26.40
2018-09-24T10:51:36.868Z,25.20
2018-09-24T10:52:36.756Z,25.40
2018-09-24T10:53:36.762Z,26.30
2018-09-24T10:54:36.798Z,26.10
2018-09-24T10:55:36.882Z,27.30
2018-09-24T10:56:36.981Z,25.10
2018-09-24T10:57:36.866Z,25.90
2018-09-24T10:58:37.003Z,26.70
2018-09-24T10:59:36.979Z,28.60
2018-09-24T11:00:36.942Z,27.50
2018-09-24T11:01:37.073Z,27.10
2018-09-24T11:02:36.990Z,26.60
2018-09-24T11:03:36.992Z,28.40
2018-09-24T11:04:37.437Z,28.30
2018-09-24T11:05:37.044Z,26.70
2018-09-24T11:06:37.196Z,30.60
2018-09-24T11:07:37.097Z,28.10
2018-09-24T11:08:37.157Z,27.80
2018-09-24T11:09:37.313Z,26.30
2018-09-24T11:10:37.210Z,24.60
2018-09-24T11:11:37.460Z,27.50
2018-09-24T11:12:37.208Z,28.70
2018-09-24T11:13:37.368Z,29.50
2018-09-24T11:14:37.261Z,28.60
2018-09-24T11:15:37.482Z,29.30
2018-09-24T11:16:37.840Z,28.80
2018-09-24T11:17:37.655Z,27.20
2018-09-24T11:18:37.487Z,29.40
2018-09-24T11:19:37.514Z,29.10
2018-09-24T11:20:37.419Z,27.30
2018-09-24T11:21:37.597Z,30.50
2018-09-24T11:22:37.587Z,30.30
2018-09-24T11:23:37.629Z,30.50
2018-09-24T11:24:37.508Z,30.70
2018-09-24T11:25:37.527Z,29.20
2018-09-24T11:26:37.779Z,30.40
2018-09-24T11:27:37.703Z,30.10
2018-09-24T11:28:37.727Z,32.20
2018-09-24T11:29:37.767Z,32.30
2018-09-24T11:30:37.652Z,31.50
2018-09-24T11:31:37.953Z,31.10
2018-09-24T11:32:37.753Z,32.40
2018-09-24T11:33:37.729Z,31.80
2018-09-24T11:34:37.754Z,32.70
2018-09-24T11:35:37.778Z,31.80
2018-09-24T11:36:38.020Z,32.60
2018-09-24T11:37:37.836Z,32.70
2018-09-24T11:38:37.834Z,31.40
2018-09-24T11:39:37.982Z,32.30
2018-09-24T11:40:37.886Z,32.10
2018-09-24T11:41:37.957Z,33.90
2018-09-24T11:42:37.921Z,33.00
2018-09-24T11:43:37.933Z,31.60
2018-09-24T11:44:37.963Z,33.20
2018-09-24T11:45:38.141Z,33.00
2018-09-24T11:46:38.134Z,32.10
2018-09-24T11:47:38.145Z,32.50
2018-09-24T11:48:38.042Z,32.70
2018-09-24T11:49:38.192Z,33.70
2018-09-24T11:50:38.129Z,33.80
2018-09-24T11:51:38.105Z,31.20
2018-09-24T11:52:38.223Z,32.50
2018-09-24T11:53:38.274Z,30.60
2018-09-24T11:54:38.170Z,31.40
2018-09-24T11:55:38.308Z,29.00
2018-09-24T11:56:38.208Z,29.50
2018-09-24T11:57:38.284Z,27.70
2018-09-24T11:58:38.253Z,28.30
2018-09-24T11:59:38.393Z,31.30
2018-09-24T12:00:38.331Z,29.60
2018-09-24T12:01:38.308Z,27.00
2018-09-24T12:02:38.437Z,28.90
2018-09-24T12:03:38.368Z,29.40
2018-09-24T12:04:38.372Z,28.20
2018-09-24T12:05:38.393Z,28.90
2018-09-24T12:06:38.420Z,28.10
2018-09-24T12:07:38.723Z,26.10
2018-09-24T12:08:38.462Z,26.50
2018-09-24T12:09:38.614Z,26.10
2018-09-24T12:10:38.614Z,25.30
2018-09-24T12:11:38.548Z,23.20
2018-09-24T12:12:38.711Z,21.80
2018-09-24T12:13:38.591Z,21.40
2018-09-24T12:14:38.611Z,21.30
2018-09-24T12:15:38.646Z,21.30
2018-09-24T12:16:38.659Z,20.10
2018-09-24T12:17:42.434Z,18.40
2018-09-24T12:18:38.706Z,18.00
2018-09-24T12:19:38.864Z,17.30
2018-09-24T12:20:38.887Z,17.50
2018-09-24T12:21:38.823Z,15.50
2018-09-24T12:22:38.869Z,16.90
2018-09-24T12:23:38.962Z,16.90
2018-09-24T12:24:39.004Z,15.60
2018-09-24T12:25:38.893Z,15.50
2018-09-24T12:26:38.908Z,15.90
2018-09-24T12:27:38.956Z,15.90
2018-09-24T12:28:38.967Z,15.80
2018-09-24T12:29:39.161Z,14.60
2018-09-24T12:30:39.032Z,15.90
2018-09-24T12:31:39.170Z,16.10
2018-09-24T12:32:39.199Z,15.80
2018-09-24T12:33:39.106Z,15.10
2018-09-24T12:34:39.226Z,15.50
2018-09-24T12:35:39.161Z,14.80
2018-09-24T12:36:39.184Z,13.80
2018-09-24T12:37:39.331Z,15.50
2018-09-24T12:38:39.360Z,16.30
2018-09-24T12:39:39.362Z,15.70
2018-09-24T12:40:39.329Z,15.30
2018-09-24T12:41:39.312Z,14.50
2018-09-24T12:42:39.470Z,14.60
2018-09-24T12:43:39.370Z,13.50
2018-09-24T12:44:39.577Z,13.60
2018-09-24T12:45:39.449Z,14.20
2018-09-24T12:46:39.461Z,14.50
2018-09-24T12:47:39.612Z,13.60
2018-09-24T12:48:39.510Z,15.60
2018-09-24T12:49:39.765Z,14.60
2018-09-24T12:50:39.587Z,15.20
2018-09-24T12:51:39.595Z,15.60
2018-09-24T12:52:39.618Z,15.70